createdAt,value
2017-11-13T00:00:42.005Z,4.60
2017-11-13T00:03:09.563Z,4.70
2017-11-13T00:05:37.142Z,4.70
2017-11-13T00:08:04.706Z,4.70
2017-11-13T00:10:33.634Z,4.80
2017-11-13T00:13:01.199Z,4.80
2017-11-13T00:15:28.741Z,4.70
2017-11-13T00:17:57.063Z,4.70
2017-11-13T00:20:24.723Z,4.70
2017-11-13T00:22:52.425Z,4.80
2017-11-13T00:25:20.056Z,4.80
2017-11-13T00:27:47.629Z,4.80
2017-11-13T00:30:15.203Z,4.80
2017-11-13T00:32:42.765Z,4.80
2017-11-13T00:35:10.310Z,4.80
2017-11-13T00:37:37.878Z,4.80
2017-11-13T00:40:05.438Z,4.80
2017-11-13T00:42:33.012Z,4.80
2017-11-13T00:45:00.565Z,4.80
2017-11-13T00:47:41.179Z,4.80
2017-11-13T00:50:12.476Z,4.90
2017-11-13T00:52:40.040Z,4.90
2017-11-13T02:05:18.985Z,5.00
2017-11-13T02:07:46.576Z,4.90
2017-11-13T02:10:14.909Z,5.00
2017-11-13T02:12:42.458Z,5.00
2017-11-13T02:15:10.045Z,5.00
2017-11-13T02:17:37.615Z,5.00
2017-11-13T02:20:05.207Z,5.00
2017-11-13T02:22:32.780Z,5.00
2017-11-13T02:25:00.353Z,5.00
2017-11-13T02:27:27.938Z,5.00
2017-11-13T02:29:55.551Z,5.00
2017-11-13T02:32:23.106Z,5.00
2017-11-13T02:34:51.436Z,5.10
2017-11-13T02:37:19.015Z,5.10
2017-11-13T02:39:46.576Z,5.00
2017-11-13T02:42:14.176Z,5.00
2017-11-13T02:44:41.765Z,5.10
2017-11-13T02:47:09.385Z,5.10
2017-11-13T02:49:37.718Z,5.10
2017-11-13T02:52:05.334Z,5.10
2017-11-13T02:54:32.908Z,5.10
2017-11-13T02:57:00.500Z,5.20
2017-11-13T02:59:28.099Z,5.20
2017-11-13T03:01:56.462Z,5.20
2017-11-13T03:04:24.019Z,5.10
2017-11-13T03:06:51.603Z,5.20
2017-11-13T03:09:19.935Z,5.10
2017-11-13T03:11:47.521Z,5.10
2017-11-13T03:14:15.133Z,5.10
2017-11-13T03:16:42.718Z,5.10
2017-11-13T03:19:10.319Z,5.10
2017-11-13T03:21:37.881Z,5.10
2017-11-13T03:24:06.236Z,5.10
2017-11-13T03:26:33.781Z,5.10
2017-11-13T03:29:01.344Z,5.10
2017-11-13T03:31:28.891Z,5.10
2017-11-13T03:33:56.445Z,5.10
2017-11-13T03:36:24.044Z,5.00
2017-11-13T03:38:51.605Z,5.00
2017-11-13T03:41:19.953Z,5.00
2017-11-13T03:43:47.512Z,5.00
2017-11-13T03:46:15.106Z,5.00
2017-11-13T03:48:43.465Z,5.10
2017-11-13T03:51:11.059Z,5.00
2017-11-13T03:53:39.386Z,5.00
2017-11-13T03:56:06.975Z,5.00
2017-11-13T03:58:34.527Z,5.10
2017-11-13T04:01:02.090Z,5.10
2017-11-13T04:03:29.655Z,5.10
2017-11-13T04:05:58.455Z,5.00
2017-11-13T04:08:26.776Z,5.00
2017-11-13T04:10:54.336Z,5.00
2017-11-13T04:13:21.912Z,5.00
2017-11-13T04:15:49.466Z,5.00
2017-11-13T04:18:17.027Z,5.00
2017-11-13T04:20:44.589Z,5.00
2017-11-13T04:23:12.208Z,5.10
2017-11-13T04:25:40.520Z,5.00
2017-11-13T04:28:08.075Z,5.10
2017-11-13T04:30:35.657Z,5.10
2017-11-13T04:33:03.200Z,5.00
2017-11-13T04:35:30.780Z,5.00
2017-11-13T04:37:58.370Z,5.00
2017-11-13T04:40:26.698Z,5.00
2017-11-13T04:42:54.259Z,5.00
2017-11-13T04:45:21.844Z,5.00
2017-11-13T04:47:49.399Z,5.00
2017-11-13T04:50:16.981Z,5.10
2017-11-13T04:52:44.541Z,5.00
2017-11-13T04:55:12.111Z,5.10
2017-11-13T04:57:40.432Z,5.00
2017-11-13T05:00:08.008Z,5.00
2017-11-13T05:02:35.558Z,5.10
2017-11-13T05:05:03.154Z,5.10
2017-11-13T05:07:30.767Z,5.10
2017-11-13T05:09:58.318Z,5.10
2017-11-13T05:12:25.894Z,5.10
2017-11-13T05:14:53.463Z,5.10
2017-11-13T05:17:21.040Z,5.20
2017-11-13T05:19:48.597Z,5.20
2017-11-13T05:22:16.176Z,5.20
2017-11-13T05:24:43.756Z,5.20
2017-11-13T05:27:12.175Z,5.20
2017-11-13T05:29:39.698Z,5.20
2017-11-13T05:32:08.045Z,5.30
2017-11-13T05:34:35.619Z,5.20
2017-11-13T05:37:03.201Z,5.30
2017-11-13T05:39:32.124Z,5.30
2017-11-13T05:41:59.685Z,5.30
2017-11-13T05:44:47.669Z,5.30
2017-11-13T05:47:15.279Z,5.40
2017-11-13T05:49:42.868Z,5.40
2017-11-13T05:52:10.429Z,5.40
2017-11-13T05:54:38.016Z,5.30
2017-11-13T05:57:05.563Z,5.40
2017-11-13T05:59:33.397Z,5.40
2017-11-13T06:02:01.719Z,5.40
2017-11-13T06:04:29.275Z,5.40
2017-11-13T06:06:56.817Z,5.30
2017-11-13T06:09:24.414Z,5.40
2017-11-13T06:11:51.983Z,5.40
2017-11-13T06:14:19.562Z,5.40
2017-11-13T06:16:47.143Z,5.40
2017-11-13T06:19:14.764Z,5.40
2017-11-13T06:21:42.315Z,5.40
2017-11-13T06:24:09.893Z,5.40
2017-11-13T06:26:37.483Z,5.40
2017-11-13T06:29:05.069Z,5.40
2017-11-13T06:31:32.635Z,5.40
2017-11-13T06:34:00.233Z,5.40
2017-11-13T06:36:27.798Z,5.40
2017-11-13T06:38:56.147Z,5.40
2017-11-13T06:41:23.710Z,5.40
2017-11-13T06:43:51.259Z,5.50
2017-11-13T06:46:20.366Z,5.50
2017-11-13T06:48:47.969Z,5.50
2017-11-13T06:51:16.306Z,5.60
2017-11-13T06:53:43.874Z,5.50
2017-11-13T06:56:11.461Z,5.50
2017-11-13T06:58:39.047Z,5.40
2017-11-13T07:01:06.819Z,5.50
2017-11-13T07:03:34.435Z,5.50
2017-11-13T07:06:02.015Z,5.50
2017-11-13T07:08:31.093Z,5.60
2017-11-13T07:10:58.691Z,5.60
2017-11-13T07:13:26.283Z,5.70
2017-11-13T07:15:53.851Z,5.70
2017-11-13T07:18:21.405Z,5.80
2017-11-13T07:20:48.975Z,5.70
2017-11-13T07:23:16.518Z,5.60
2017-11-13T07:25:44.061Z,5.60
2017-11-13T07:28:11.614Z,5.60
2017-11-13T07:30:39.193Z,5.70
2017-11-13T07:33:06.781Z,5.70
2017-11-13T07:35:34.338Z,5.70
2017-11-13T07:38:01.960Z,5.80
2017-11-13T07:40:29.531Z,5.80
2017-11-13T07:42:57.114Z,5.90
2017-11-13T07:45:24.670Z,6.00
2017-11-13T07:47:52.214Z,6.00
2017-11-13T07:50:19.790Z,6.10
2017-11-13T07:52:47.381Z,6.00
2017-11-13T07:55:15.705Z,6.10
2017-11-13T07:57:43.296Z,6.10
2017-11-13T08:00:10.874Z,6.20
2017-11-13T08:02:38.445Z,6.20
2017-11-13T08:05:06.783Z,6.20
2017-11-13T08:07:34.344Z,6.20
2017-11-13T08:10:02.669Z,6.30
2017-11-13T08:12:30.989Z,6.30
2017-11-13T08:14:58.558Z,6.30
2017-11-13T08:17:26.144Z,6.40
2017-11-13T08:19:53.686Z,6.30
2017-11-13T08:22:21.296Z,6.20
2017-11-13T08:24:48.871Z,6.30
2017-11-13T08:27:16.455Z,6.40
2017-11-13T08:29:44.010Z,6.40
2017-11-13T08:32:11.615Z,6.50
2017-11-13T08:34:43.389Z,6.60
2017-11-13T08:37:11.759Z,6.70
2017-11-13T08:39:40.112Z,6.80
2017-11-13T08:42:07.687Z,6.70
2017-11-13T08:44:35.252Z,6.70
2017-11-13T08:47:02.795Z,6.80
2017-11-13T08:49:30.371Z,6.90
2017-11-13T08:51:57.934Z,7.10
2017-11-13T08:54:26.758Z,7.20
2017-11-13T08:56:54.318Z,7.00
2017-11-13T08:59:21.881Z,7.10
2017-11-13T09:01:49.479Z,7.20
2017-11-13T09:04:17.052Z,7.40
2017-11-13T09:06:44.621Z,7.40
2017-11-13T09:09:12.205Z,7.40
2017-11-13T09:11:40.533Z,7.30
2017-11-13T09:14:08.090Z,7.30
2017-11-13T09:19:15.901Z,7.30
2017-11-13T09:21:43.461Z,7.40
2017-11-13T09:24:11.021Z,7.40
2017-11-13T09:26:38.571Z,7.30
2017-11-13T09:29:06.124Z,7.20
2017-11-13T09:31:33.744Z,7.10
2017-11-13T09:34:02.108Z,7.20
2017-11-13T09:36:29.715Z,7.20
2017-11-13T09:38:58.929Z,6.90
2017-11-13T09:41:26.523Z,6.90
2017-11-13T09:43:54.173Z,6.70
2017-11-13T09:46:21.808Z,6.70
2017-11-13T09:48:49.447Z,6.90
2017-11-13T09:51:17.060Z,6.70
2017-11-13T09:53:44.749Z,6.60
2017-11-13T09:56:12.370Z,6.70
2017-11-13T09:58:40.061Z,6.70
2017-11-13T10:01:08.427Z,6.70
2017-11-13T10:03:36.138Z,6.70
2017-11-13T10:06:03.869Z,6.70
2017-11-13T10:08:32.289Z,6.90
2017-11-13T10:10:59.918Z,6.90
2017-11-13T10:13:28.309Z,7.20
2017-11-13T10:15:56.710Z,7.50
2017-11-13T10:18:24.397Z,7.50
2017-11-13T10:20:52.209Z,7.40
2017-11-13T10:23:20.633Z,7.70
2017-11-13T10:25:48.274Z,7.70
2017-11-13T10:28:15.939Z,7.60
2017-11-13T10:30:43.610Z,7.60
2017-11-13T10:33:11.297Z,7.60
2017-11-13T10:35:38.935Z,7.70
2017-11-13T10:38:06.561Z,8.00
2017-11-13T10:40:34.961Z,8.70
2017-11-13T10:45:55.768Z,8.70
2017-11-13T10:48:23.440Z,8.60
2017-11-13T10:50:51.150Z,8.60
2017-11-13T10:53:18.761Z,8.50
2017-11-13T10:55:47.269Z,8.20
2017-11-13T10:58:14.908Z,8.20
2017-11-13T11:00:43.350Z,8.10
2017-11-13T11:03:10.985Z,8.10
2017-11-13T11:05:38.610Z,8.40
2017-11-13T11:08:06.273Z,8.20
2017-11-13T11:10:33.909Z,8.00
2017-11-13T11:13:01.546Z,7.90
2017-11-13T11:15:29.729Z,7.90
2017-11-13T11:18:02.927Z,8.10
2017-11-13T11:20:42.402Z,8.10
2017-11-13T11:23:10.532Z,8.10
2017-11-13T11:25:40.809Z,8.10
2017-11-13T11:28:13.988Z,8.30
2017-11-13T11:30:46.163Z,8.30
2017-11-13T11:33:18.402Z,8.40
2017-11-13T11:35:48.621Z,8.50
2017-11-13T11:38:16.710Z,8.30
2017-11-13T11:40:45.954Z,8.20
2017-11-13T11:43:13.587Z,8.20
2017-11-13T11:45:57.823Z,8.10
2017-11-13T11:48:27.407Z,8.10
2017-11-13T11:50:55.091Z,8.10
2017-11-13T11:53:22.735Z,8.10
2017-11-13T11:55:51.136Z,8.50
2017-11-13T11:58:18.826Z,8.50
2017-11-13T12:00:47.198Z,8.50
2017-11-13T12:03:15.570Z,8.60
2017-11-13T12:05:43.206Z,8.60
2017-11-13T12:08:10.841Z,8.40
2017-11-13T12:10:38.479Z,8.40
2017-11-13T12:13:06.113Z,8.30
2017-11-13T12:15:33.749Z,8.30
2017-11-13T12:18:02.125Z,8.30
2017-11-13T12:20:29.826Z,8.30
2017-11-13T12:22:57.459Z,8.20
2017-11-13T12:25:25.837Z,8.30
2017-11-13T12:27:53.457Z,8.20
2017-11-13T12:30:21.078Z,8.40
2017-11-13T12:32:48.729Z,8.60
2017-11-13T12:35:16.800Z,8.50
2017-11-13T12:37:45.320Z,8.70
2017-11-13T12:40:13.703Z,8.80
2017-11-13T12:42:42.086Z,9.00
2017-11-13T12:45:10.492Z,9.20
2017-11-13T12:47:38.222Z,9.20
2017-11-13T12:50:06.599Z,9.50
2017-11-13T12:52:35.175Z,9.50
2017-11-13T12:55:02.868Z,9.40
2017-11-13T12:57:31.312Z,9.30
2017-11-13T12:59:58.951Z,9.30
2017-11-13T13:02:26.571Z,9.30
2017-11-13T13:04:54.540Z,9.30
2017-11-13T13:07:22.174Z,9.30
2017-11-13T13:09:49.892Z,9.40
2017-11-13T13:12:17.514Z,9.20
2017-11-13T13:14:45.114Z,9.10
2017-11-13T13:17:12.739Z,9.00
2017-11-13T13:19:40.360Z,8.90
2017-11-13T13:22:07.990Z,9.00
2017-11-13T13:24:35.624Z,9.20
2017-11-13T13:27:03.261Z,9.40
2017-11-13T13:29:32.813Z,9.40
2017-11-13T13:32:01.387Z,9.30
2017-11-13T13:34:29.019Z,9.30
2017-11-13T13:36:57.483Z,9.50
2017-11-13T13:39:25.097Z,9.40
2017-11-13T13:41:52.738Z,9.50
2017-11-13T13:44:20.356Z,9.40
2017-11-13T13:46:48.124Z,9.30
2017-11-13T13:49:15.917Z,9.30
2017-11-13T13:51:44.315Z,9.20
2017-11-13T13:54:11.933Z,9.10
2017-11-13T13:56:39.564Z,9.30
2017-11-13T13:59:07.251Z,9.20
2017-11-13T14:01:34.924Z,9.10
2017-11-13T14:04:02.531Z,9.30
2017-11-13T14:06:30.181Z,9.20
2017-11-13T14:08:57.823Z,9.10
2017-11-13T14:11:26.228Z,9.20
2017-11-13T14:13:53.933Z,9.20
2017-11-13T14:16:21.565Z,9.10
2017-11-13T14:18:49.176Z,9.20
2017-11-13T14:21:16.774Z,9.20
2017-11-13T14:23:44.393Z,9.00
2017-11-13T14:26:12.002Z,8.90
2017-11-13T14:28:39.653Z,8.90
2017-11-13T14:31:08.104Z,8.70
2017-11-13T14:33:35.768Z,8.70
2017-11-13T14:36:03.489Z,8.70
2017-11-13T14:38:31.114Z,8.70
2017-11-13T14:40:59.495Z,8.60
2017-11-13T14:43:27.982Z,8.60
2017-11-13T14:45:55.665Z,8.60
2017-11-13T14:48:23.290Z,8.40
2017-11-13T14:50:51.670Z,8.40
2017-11-13T14:53:20.078Z,8.40
2017-11-13T14:55:47.699Z,8.40
2017-11-13T14:58:15.588Z,8.40
2017-11-13T15:00:43.993Z,8.50
2017-11-13T15:03:11.635Z,8.50
2017-11-13T15:05:39.239Z,8.30
2017-11-13T15:08:06.813Z,8.30
2017-11-13T15:10:34.374Z,8.30
2017-11-13T15:13:01.936Z,8.40
2017-11-13T15:15:29.514Z,8.40
2017-11-13T15:17:57.251Z,8.10
2017-11-13T15:20:25.205Z,8.10
2017-11-13T15:22:52.781Z,8.00
2017-11-13T15:25:20.394Z,7.90
2017-11-13T15:27:48.766Z,7.90
2017-11-13T15:30:17.083Z,7.90
2017-11-13T15:32:44.753Z,7.90
2017-11-13T15:35:12.322Z,7.70
2017-11-13T15:37:39.914Z,7.60
2017-11-13T15:40:07.497Z,7.60
2017-11-13T15:42:35.810Z,7.40
2017-11-13T15:45:03.387Z,7.40
2017-11-13T15:47:30.970Z,7.30
2017-11-13T15:49:58.557Z,7.30
2017-11-13T15:52:26.878Z,7.30
2017-11-13T15:54:54.455Z,7.30
2017-11-13T15:57:22.125Z,7.20
2017-11-13T15:59:49.696Z,7.10
2017-11-13T16:02:17.292Z,6.90
2017-11-13T16:04:45.628Z,6.80
2017-11-13T16:07:13.202Z,6.80
2017-11-13T16:09:40.747Z,6.70
2017-11-13T16:12:08.327Z,6.60
2017-11-13T16:14:35.911Z,6.60
2017-11-13T16:17:04.245Z,6.50
2017-11-13T16:19:31.839Z,6.50
2017-11-13T16:21:59.400Z,6.50
2017-11-13T16:24:26.971Z,6.40
2017-11-13T16:26:54.532Z,6.30
2017-11-13T16:32:29.234Z,6.20
2017-11-13T16:34:56.817Z,6.20
2017-11-13T16:37:24.393Z,6.00
2017-11-13T16:39:51.979Z,6.00
2017-11-13T16:42:19.543Z,5.90
2017-11-13T16:44:47.148Z,5.90
2017-11-13T16:47:14.720Z,5.80
2017-11-13T16:49:42.341Z,5.70
2017-11-13T16:52:09.933Z,5.70
2017-11-13T16:54:37.527Z,5.70
2017-11-13T16:57:05.090Z,5.60
2017-11-13T16:59:32.741Z,5.60
2017-11-13T17:02:00.315Z,5.50
2017-11-13T17:04:27.861Z,5.50
2017-11-13T17:06:55.430Z,5.40
2017-11-13T17:09:23.006Z,5.40
2017-11-13T17:11:50.624Z,5.40
2017-11-13T17:14:18.223Z,5.40
2017-11-13T17:16:45.876Z,5.30
2017-11-13T17:19:13.633Z,5.30
2017-11-13T17:21:41.204Z,5.30
2017-11-13T17:24:08.796Z,5.20
2017-11-13T17:26:37.120Z,5.20
2017-11-13T17:29:04.691Z,5.20
2017-11-13T17:31:32.266Z,5.20
2017-11-13T17:33:59.862Z,5.20
2017-11-13T17:36:28.194Z,5.20
2017-11-13T17:38:55.766Z,5.20
2017-11-13T17:41:23.353Z,5.20
2017-11-13T17:43:51.698Z,5.20
2017-11-13T17:46:19.306Z,5.10
2017-11-13T17:51:34.162Z,5.20
2017-11-13T17:54:01.724Z,5.20
2017-11-13T17:56:29.288Z,5.20
2017-11-13T17:58:57.471Z,5.20
2017-11-13T18:01:25.822Z,5.20
2017-11-13T18:03:53.412Z,5.20
2017-11-13T18:06:21.120Z,5.10
2017-11-13T18:08:48.791Z,5.10
2017-11-13T18:11:16.405Z,5.00
2017-11-13T18:13:44.095Z,5.10
2017-11-13T18:16:11.822Z,5.10
2017-11-13T18:18:39.470Z,5.10
2017-11-13T18:21:07.081Z,5.20
2017-11-13T18:23:34.654Z,5.10
2017-11-13T18:26:02.301Z,5.10
2017-11-13T18:28:30.634Z,5.00
2017-11-13T18:31:02.446Z,5.00
2017-11-13T18:33:30.591Z,5.00
2017-11-13T18:35:58.548Z,4.80
2017-11-13T18:38:26.103Z,4.70
2017-11-13T18:40:59.743Z,4.60
2017-11-13T18:43:28.246Z,4.40
2017-11-13T18:45:55.811Z,4.40
2017-11-13T18:48:23.412Z,4.40
2017-11-13T18:50:51.084Z,4.40
2017-11-13T18:53:18.772Z,4.30
2017-11-13T18:55:47.197Z,4.20
2017-11-13T18:58:14.805Z,4.20
2017-11-13T19:00:43.231Z,4.20
2017-11-13T19:03:10.885Z,4.10
2017-11-13T19:05:38.574Z,4.20
2017-11-13T19:08:06.163Z,4.10
2017-11-13T19:10:33.890Z,4.10
2017-11-13T19:13:01.583Z,4.00
2017-11-13T19:15:29.234Z,3.90
2017-11-13T19:17:56.817Z,3.90
2017-11-13T19:20:24.405Z,3.80
2017-11-13T19:22:52.189Z,3.90
2017-11-13T19:25:20.124Z,3.80
2017-11-13T19:27:49.886Z,3.80
2017-11-13T19:30:17.608Z,3.70
2017-11-13T19:32:46.075Z,3.60
2017-11-13T19:35:14.542Z,3.60
2017-11-13T19:37:42.358Z,3.60
2017-11-13T19:40:10.325Z,3.60
2017-11-13T19:42:37.882Z,3.60
2017-11-13T19:45:05.464Z,3.60
2017-11-13T19:47:33.174Z,3.60
2017-11-13T19:50:00.941Z,3.60
2017-11-13T19:52:29.481Z,3.40
2017-11-13T19:54:57.043Z,3.40
2017-11-13T19:57:24.745Z,3.40
2017-11-13T19:59:52.482Z,3.40
2017-11-13T20:02:20.476Z,3.30
2017-11-13T20:04:50.157Z,3.20
2017-11-13T20:07:18.168Z,3.10
2017-11-13T20:09:45.991Z,3.20
2017-11-13T20:12:13.906Z,3.10
2017-11-13T20:14:42.915Z,3.10
2017-11-13T20:17:11.649Z,3.10
2017-11-13T20:19:40.911Z,3.10
2017-11-13T20:22:09.110Z,3.10
2017-11-13T20:24:37.048Z,3.10
2017-11-13T20:27:04.903Z,3.00
2017-11-13T20:29:32.919Z,3.00
2017-11-13T20:32:01.140Z,2.90
2017-11-13T20:34:30.071Z,2.90
2017-11-13T20:36:58.709Z,2.90
2017-11-13T20:39:26.329Z,2.80
2017-11-13T20:41:55.365Z,2.80
2017-11-13T20:44:23.592Z,2.80
2017-11-13T20:46:52.577Z,2.70
2017-11-13T20:49:20.895Z,2.70
2017-11-13T20:51:48.570Z,2.80
2017-11-13T20:54:16.945Z,2.80
2017-11-13T20:56:44.514Z,2.70
2017-11-13T20:59:13.984Z,2.80
2017-11-13T21:01:41.762Z,2.70
2017-11-13T21:04:09.313Z,2.70
2017-11-13T21:06:36.887Z,2.70
2017-11-13T21:09:04.470Z,2.60
2017-11-13T21:11:32.034Z,2.50
2017-11-13T21:13:59.634Z,2.50
2017-11-13T21:16:27.962Z,2.50
2017-11-13T21:18:55.506Z,2.50
2017-11-13T21:21:23.099Z,2.50
2017-11-13T21:23:50.661Z,2.50
2017-11-13T21:26:18.237Z,2.50
2017-11-13T21:28:45.818Z,2.50
2017-11-13T21:31:14.149Z,2.50
2017-11-13T21:33:41.704Z,2.40
2017-11-13T21:36:09.256Z,2.40
2017-11-13T21:38:36.803Z,2.50
2017-11-13T21:41:04.381Z,2.40
2017-11-13T21:43:31.923Z,2.40
2017-11-13T21:45:59.495Z,2.40
2017-11-13T21:48:27.066Z,2.40
2017-11-13T21:50:54.665Z,2.40
2017-11-13T21:53:22.195Z,2.40
2017-11-13T21:55:50.511Z,2.40
2017-11-13T21:58:18.845Z,2.40
2017-11-13T22:00:46.396Z,2.30
2017-11-13T22:03:13.975Z,2.30
2017-11-13T22:05:41.522Z,2.40
2017-11-13T22:08:09.074Z,2.30
2017-11-13T22:10:36.640Z,2.30
2017-11-13T22:13:04.218Z,2.30
2017-11-13T22:15:31.774Z,2.30
2017-11-13T22:17:59.323Z,2.30
2017-11-13T22:20:26.885Z,2.30
2017-11-13T22:22:54.441Z,2.30
2017-11-13T22:25:22.053Z,2.30
2017-11-13T22:27:50.474Z,2.20
2017-11-13T22:30:18.030Z,2.20
2017-11-13T22:32:45.608Z,2.20
2017-11-13T22:35:13.259Z,2.10
2017-11-13T22:37:40.803Z,2.10
2017-11-13T22:40:08.370Z,2.10
2017-11-13T22:42:35.949Z,2.10
2017-11-13T22:45:03.526Z,2.00
2017-11-13T22:47:31.843Z,1.90
2017-11-13T22:50:00.252Z,1.90
2017-11-13T22:52:27.828Z,1.90
2017-11-13T22:54:55.374Z,1.90
2017-11-13T22:57:22.941Z,1.90
2017-11-13T22:59:50.480Z,1.90
2017-11-13T23:02:18.055Z,1.90
2017-11-13T23:04:45.610Z,1.90
2017-11-13T23:07:13.166Z,1.90
2017-11-13T23:09:40.719Z,1.90
2017-11-13T23:12:08.287Z,1.90
2017-11-13T23:14:35.845Z,1.80
2017-11-13T23:17:03.404Z,1.80
2017-11-13T23:19:30.950Z,1.80
2017-11-13T23:21:59.293Z,1.80
2017-11-13T23:24:26.891Z,1.80
2017-11-13T23:26:55.205Z,1.80
2017-11-13T23:29:22.761Z,1.80
2017-11-13T23:31:50.358Z,1.80
2017-11-13T23:34:17.918Z,1.80
2017-11-13T23:36:45.508Z,1.80
2017-11-13T23:39:13.846Z,1.80
2017-11-13T23:41:41.401Z,1.80
2017-11-13T23:44:08.952Z,1.70
2017-11-13T23:46:36.504Z,1.80
2017-11-13T23:49:04.056Z,1.80
2017-11-13T23:51:31.623Z,1.80
2017-11-13T23:53:59.183Z,1.80
2017-11-13T23:56:26.730Z,1.80
2017-11-13T23:58:54.293Z,1.90
